createdAt,value
2023-01-20T00:00:03.923Z,-0.40
2023-01-20T00:02:30.563Z,-0.40
2023-01-20T00:04:57.125Z,-0.40
2023-01-20T00:07:23.862Z,-0.40
2023-01-20T00:09:50.483Z,-0.40
2023-01-20T00:12:17.230Z,-0.40
2023-01-20T00:14:43.870Z,-0.40
2023-01-20T00:17:10.482Z,-0.40
2023-01-20T00:19:37.116Z,-0.40
2023-01-20T00:22:03.745Z,-0.40
2023-01-20T00:24:30.362Z,-0.50
2023-01-20T00:26:56.982Z,-0.20
2023-01-20T00:29:23.854Z,0.00
2023-01-20T00:31:50.476Z,-0.30
2023-01-20T00:34:17.110Z,-0.30
2023-01-20T00:36:43.753Z,-0.30
2023-01-20T00:39:10.394Z,-0.30
2023-01-20T00:41:37.107Z,-0.30
2023-01-20T00:44:03.759Z,-0.40
2023-01-20T00:46:30.427Z,-0.40
2023-01-20T00:48:57.095Z,-0.50
2023-01-20T00:51:23.944Z,-0.50
2023-01-20T00:53:50.565Z,-0.40
2023-01-20T00:56:17.193Z,-0.40
2023-01-20T00:58:44.409Z,-0.40
2023-01-20T01:01:11.886Z,-0.40
2023-01-20T01:03:38.563Z,-0.40
2023-01-20T01:06:05.895Z,-0.40
2023-01-20T01:08:33.286Z,-0.40
2023-01-20T01:10:59.888Z,-0.40
2023-01-20T01:13:26.443Z,-0.40
2023-01-20T01:15:53.153Z,-0.50
2023-01-20T01:18:19.772Z,-0.50
2023-01-20T01:20:46.317Z,-0.50
2023-01-20T01:23:12.892Z,-0.60
2023-01-20T01:25:39.472Z,-0.50
2023-01-20T01:28:06.138Z,-0.50
2023-01-20T01:30:32.756Z,-0.50
2023-01-20T01:32:59.319Z,-0.50
2023-01-20T01:35:25.854Z,-0.40
2023-01-20T01:37:52.516Z,-0.40
2023-01-20T01:40:19.130Z,-0.40
2023-01-20T01:42:45.664Z,-0.40
2023-01-20T01:45:12.760Z,-0.50
2023-01-20T01:47:43.802Z,-0.60
2023-01-20T01:50:12.488Z,-0.50
2023-01-20T01:52:40.251Z,-0.40
2023-01-20T01:55:07.124Z,-0.50
2023-01-20T01:57:34.589Z,-0.40
2023-01-20T02:00:01.132Z,-0.50
2023-01-20T02:02:27.853Z,-0.40
2023-01-20T02:04:54.463Z,-0.50
2023-01-20T02:07:21.430Z,-0.50
2023-01-20T02:09:48.173Z,-0.50
2023-01-20T02:12:17.402Z,-0.50
2023-01-20T02:14:47.149Z,-0.50
2023-01-20T02:17:29.773Z,-0.50
2023-01-20T02:20:11.735Z,-0.50
2023-01-20T02:22:41.246Z,-0.50
2023-01-20T02:25:10.885Z,-0.60
2023-01-20T02:28:00.803Z,-0.50
2023-01-20T02:30:56.901Z,-0.50
2023-01-20T02:33:44.359Z,-0.50
2023-01-20T02:36:26.206Z,-0.40
2023-01-20T02:39:09.238Z,-0.40
2023-01-20T02:41:41.776Z,-0.40
2023-01-20T02:44:08.323Z,-0.40
2023-01-20T02:46:40.471Z,-0.20
2023-01-20T02:49:13.260Z,-0.40
2023-01-20T02:51:46.188Z,-0.40
2023-01-20T02:54:13.970Z,-0.40
2023-01-20T02:56:40.568Z,-0.40
2023-01-20T02:59:11.768Z,-0.40
2023-01-20T03:01:58.719Z,-0.40
2023-01-20T03:07:55.093Z,-0.40
2023-01-20T03:10:23.417Z,-0.40
2023-01-20T03:12:52.557Z,-0.40
2023-01-20T03:15:21.174Z,-0.40
2023-01-20T03:17:47.710Z,-0.40
2023-01-20T03:20:14.361Z,-0.40
2023-01-20T03:22:40.953Z,-0.40
2023-01-20T03:25:08.504Z,-0.40
2023-01-20T03:27:35.070Z,-0.40
2023-01-20T03:30:01.729Z,-0.40
2023-01-20T03:32:29.231Z,-0.40
2023-01-20T03:34:56.657Z,-0.50
2023-01-20T03:37:23.241Z,-0.50
2023-01-20T03:39:50.173Z,-0.50
2023-01-20T03:42:21.770Z,-0.50
2023-01-20T03:44:48.275Z,-0.50
2023-01-20T03:47:20.079Z,-0.50
2023-01-20T03:49:55.699Z,-0.60
2023-01-20T03:52:47.017Z,-0.60
2023-01-20T03:55:18.515Z,-0.60
2023-01-20T03:58:04.691Z,-0.60
2023-01-20T04:00:33.404Z,-0.60
2023-01-20T04:03:01.897Z,-0.60
2023-01-20T04:05:29.268Z,-0.60
2023-01-20T04:07:57.589Z,-0.60
2023-01-20T04:10:25.382Z,-0.60
2023-01-20T04:12:51.976Z,-0.60
2023-01-20T04:15:19.705Z,-0.60
2023-01-20T04:17:47.028Z,-0.60
2023-01-20T04:20:15.336Z,-0.60
2023-01-20T04:22:53.479Z,-0.60
2023-01-20T04:25:30.594Z,-0.60
2023-01-20T04:27:57.191Z,-0.60
2023-01-20T04:30:23.893Z,-0.60
2023-01-20T04:32:50.545Z,-0.60
2023-01-20T04:35:18.059Z,-0.60
2023-01-20T04:37:44.706Z,-0.70
2023-01-20T04:40:11.630Z,-0.70
2023-01-20T04:42:38.501Z,-0.70
2023-01-20T04:45:05.335Z,-0.70
2023-01-20T04:47:32.716Z,-0.70
2023-01-20T04:49:59.406Z,-0.80
2023-01-20T04:52:25.973Z,-0.80
2023-01-20T04:54:52.550Z,-0.80
2023-01-20T04:57:19.095Z,-0.80
2023-01-20T04:59:45.765Z,-0.80
2023-01-20T05:02:12.333Z,-0.80
2023-01-20T05:04:38.926Z,-0.80
2023-01-20T05:07:05.464Z,-0.80
2023-01-20T05:09:31.980Z,-0.80
2023-01-20T05:11:58.487Z,-0.80
2023-01-20T05:14:25.068Z,-0.80
2023-01-20T05:16:51.602Z,-0.80
2023-01-20T05:19:18.154Z,-0.70
2023-01-20T05:21:44.829Z,-0.80
2023-01-20T05:24:11.381Z,-0.80
2023-01-20T05:26:38.042Z,-0.80
2023-01-20T05:29:05.484Z,-0.80
2023-01-20T05:31:32.287Z,-0.80
2023-01-20T05:33:59.126Z,-0.80
2023-01-20T05:36:25.700Z,-0.90
2023-01-20T05:38:52.212Z,-0.80
2023-01-20T05:41:18.739Z,-0.90
2023-01-20T05:43:45.265Z,-0.90
2023-01-20T05:46:11.877Z,-0.90
2023-01-20T05:48:38.510Z,-0.90
2023-01-20T05:51:05.096Z,-1.00
2023-01-20T05:53:31.613Z,-1.00
2023-01-20T05:55:58.831Z,-1.00
2023-01-20T05:58:25.386Z,-1.00
2023-01-20T06:00:51.923Z,-1.00
2023-01-20T06:03:18.439Z,-1.00
2023-01-20T06:05:44.950Z,-1.00
2023-01-20T06:08:11.501Z,-1.00
2023-01-20T06:10:38.243Z,-1.10
2023-01-20T06:13:04.853Z,-1.10
2023-01-20T06:15:31.392Z,-1.20
2023-01-20T06:17:57.935Z,-1.10
2023-01-20T06:20:24.462Z,-1.10
2023-01-20T06:22:54.524Z,-1.00
2023-01-20T06:25:21.044Z,-1.00
2023-01-20T06:27:47.562Z,-0.90
2023-01-20T06:30:14.216Z,-1.00
2023-01-20T06:32:40.825Z,-1.00
2023-01-20T06:35:09.322Z,-1.00
2023-01-20T06:37:37.068Z,-1.00
2023-01-20T06:40:03.729Z,-1.00
2023-01-20T06:42:30.947Z,-1.00
2023-01-20T06:44:57.602Z,-0.90
2023-01-20T06:47:24.159Z,-0.90
2023-01-20T06:49:50.942Z,-1.00
2023-01-20T06:52:17.587Z,-1.00
2023-01-20T06:54:44.442Z,-1.00
2023-01-20T06:57:11.059Z,-1.00
2023-01-20T06:59:37.675Z,-1.10
2023-01-20T07:02:04.476Z,-1.10
2023-01-20T07:04:31.384Z,-1.20
2023-01-20T07:06:58.039Z,-1.10
2023-01-20T07:09:24.691Z,-1.10
2023-01-20T07:11:51.336Z,-0.20
2023-01-20T07:14:17.965Z,-1.10
2023-01-20T07:16:44.639Z,-1.00
2023-01-20T07:19:12.102Z,-0.90
2023-01-20T07:21:38.740Z,-0.90
2023-01-20T07:24:05.775Z,-0.90
2023-01-20T07:26:32.469Z,-0.90
2023-01-20T07:28:59.397Z,-0.90
2023-01-20T07:31:26.983Z,-0.60
2023-01-20T07:33:57.222Z,-1.00
2023-01-20T07:36:24.150Z,-0.90
2023-01-20T07:38:51.369Z,-0.90
2023-01-20T07:41:19.707Z,-0.80
2023-01-20T07:43:47.930Z,-0.90
2023-01-20T07:46:14.590Z,-1.00
2023-01-20T07:48:41.654Z,-1.00
2023-01-20T07:51:09.391Z,-1.00
2023-01-20T07:53:37.128Z,-1.00
2023-01-20T07:56:04.641Z,-0.30
2023-01-20T07:58:31.295Z,-0.50
2023-01-20T08:00:57.971Z,-0.80
2023-01-20T08:03:27.335Z,-0.30
2023-01-20T08:05:54.153Z,-0.70
2023-01-20T08:08:20.777Z,-0.70
2023-01-20T08:10:53.074Z,-0.70
2023-01-20T08:13:19.694Z,-0.60
2023-01-20T08:15:46.342Z,-0.70
2023-01-20T08:18:12.962Z,-0.70
2023-01-20T08:20:40.024Z,-0.50
2023-01-20T08:23:06.860Z,-0.60
2023-01-20T08:25:33.568Z,-0.60
2023-01-20T08:28:00.163Z,-0.60
2023-01-20T08:30:26.901Z,-0.60
2023-01-20T08:32:53.562Z,-0.60
2023-01-20T08:35:20.210Z,-0.50
2023-01-20T08:37:46.875Z,-0.50
2023-01-20T08:40:13.621Z,-0.40
2023-01-20T08:42:40.253Z,0.50
2023-01-20T08:45:09.226Z,-0.40
2023-01-20T08:47:36.952Z,-0.20
2023-01-20T08:50:05.022Z,-0.10
2023-01-20T08:52:31.789Z,0.00
2023-01-20T08:54:58.980Z,0.10
2023-01-20T08:57:26.534Z,0.20
2023-01-20T08:59:53.596Z,0.20
2023-01-20T09:02:20.381Z,0.20
2023-01-20T09:04:47.533Z,0.30
2023-01-20T09:07:14.091Z,0.20
2023-01-20T09:09:40.841Z,0.60
2023-01-20T09:12:07.560Z,0.50
2023-01-20T09:14:34.177Z,0.50
2023-01-20T09:17:02.710Z,0.30
2023-01-20T09:19:29.633Z,0.50
2023-01-20T09:21:56.524Z,0.60
2023-01-20T09:24:23.464Z,0.50
2023-01-20T09:26:50.574Z,0.70
2023-01-20T09:29:18.114Z,0.70
2023-01-20T09:31:46.196Z,0.60
2023-01-20T09:34:19.201Z,0.80
2023-01-20T09:36:46.259Z,1.00
2023-01-20T09:39:34.687Z,1.30
2023-01-20T09:42:22.863Z,1.60
2023-01-20T09:44:52.833Z,1.70
2023-01-20T09:47:26.135Z,1.80
2023-01-20T09:50:30.457Z,1.90
2023-01-20T09:53:15.290Z,1.90
2023-01-20T09:55:47.954Z,1.90
2023-01-20T09:58:23.652Z,2.10
2023-01-20T10:00:54.847Z,2.10
2023-01-20T10:05:49.656Z,2.40
2023-01-20T10:08:31.662Z,2.50
2023-01-20T10:11:05.460Z,2.60
2023-01-20T10:13:47.314Z,3.20
2023-01-20T10:16:20.301Z,2.50
2023-01-20T10:18:48.319Z,2.50
2023-01-20T10:21:18.138Z,2.70
2023-01-20T10:23:54.987Z,2.40
2023-01-20T10:26:27.780Z,2.70
2023-01-20T10:29:01.603Z,2.80
2023-01-20T10:31:30.951Z,2.80
2023-01-20T10:34:00.440Z,2.60
2023-01-20T10:36:29.823Z,2.50
2023-01-20T10:39:04.518Z,2.60
2023-01-20T10:41:32.375Z,2.60
2023-01-20T10:43:59.472Z,2.70
2023-01-20T10:46:38.474Z,2.70
2023-01-20T10:49:25.524Z,2.90
2023-01-20T10:51:59.990Z,2.90
2023-01-20T10:54:38.068Z,3.10
2023-01-20T10:57:05.587Z,2.80
2023-01-20T10:59:35.313Z,2.70
2023-01-20T11:02:11.856Z,2.70
2023-01-20T11:04:39.173Z,2.40
2023-01-20T11:07:09.830Z,2.20
2023-01-20T11:09:39.353Z,2.70
2023-01-20T11:12:17.012Z,2.50
2023-01-20T11:14:44.519Z,2.60
2023-01-20T11:17:15.748Z,2.40
2023-01-20T11:19:45.610Z,2.70
2023-01-20T11:22:13.282Z,2.70
2023-01-20T11:24:43.769Z,2.70
2023-01-20T11:27:19.259Z,2.90
2023-01-20T11:29:51.033Z,2.90
2023-01-20T11:32:25.236Z,2.80
2023-01-20T11:34:52.065Z,2.90
2023-01-20T11:37:25.692Z,2.90
2023-01-20T11:39:55.268Z,2.90
2023-01-20T11:42:26.127Z,2.90
2023-01-20T11:44:54.178Z,2.60
2023-01-20T11:47:26.166Z,2.50
2023-01-20T11:50:05.021Z,2.30
2023-01-20T11:52:32.454Z,2.40
2023-01-20T11:55:09.218Z,2.30
2023-01-20T11:57:37.341Z,2.10
2023-01-20T12:00:04.565Z,1.90
2023-01-20T12:02:31.289Z,1.90
2023-01-20T12:05:15.768Z,1.70
2023-01-20T12:07:44.585Z,1.80
2023-01-20T12:10:14.748Z,1.80
2023-01-20T12:12:44.386Z,1.90
2023-01-20T12:15:15.315Z,2.10
2023-01-20T12:17:57.995Z,1.90
2023-01-20T12:20:27.776Z,2.10
2023-01-20T12:23:01.330Z,2.00
2023-01-20T12:25:34.628Z,2.00
2023-01-20T12:28:04.819Z,2.00
2023-01-20T12:31:07.117Z,1.70
2023-01-20T12:33:38.222Z,1.70
2023-01-20T12:36:11.717Z,1.60
2023-01-20T12:38:43.352Z,1.50
2023-01-20T12:41:16.085Z,1.60
2023-01-20T12:43:55.652Z,1.80
2023-01-20T12:46:22.323Z,2.00
2023-01-20T12:48:55.954Z,2.10
2023-01-20T12:51:22.514Z,1.90
2023-01-20T12:54:00.196Z,1.90
2023-01-20T12:56:32.939Z,1.70
2023-01-20T12:59:18.005Z,1.80
2023-01-20T13:02:05.099Z,1.80
2023-01-20T13:04:50.549Z,1.90
2023-01-20T13:07:27.203Z,1.80
2023-01-20T13:10:02.946Z,1.90
2023-01-20T13:12:32.693Z,1.90
2023-01-20T13:15:04.233Z,2.00
2023-01-20T13:17:33.788Z,2.00
2023-01-20T13:20:02.259Z,1.90
2023-01-20T13:22:29.554Z,1.80
2023-01-20T13:24:57.364Z,2.00
2023-01-20T13:27:34.503Z,2.10
2023-01-20T13:30:03.272Z,2.10
2023-01-20T13:32:46.172Z,2.20
2023-01-20T13:35:16.177Z,2.40
2023-01-20T13:37:48.453Z,2.50
2023-01-20T13:40:35.305Z,2.30
2023-01-20T13:43:02.662Z,2.50
2023-01-20T13:45:29.425Z,2.60
2023-01-20T13:48:00.756Z,2.50
2023-01-20T13:50:33.703Z,2.40
2023-01-20T13:53:00.268Z,2.30
2023-01-20T13:55:31.184Z,2.30
2023-01-20T13:57:57.884Z,2.20
2023-01-20T14:00:24.523Z,2.20
2023-01-20T14:02:53.143Z,3.50
2023-01-20T14:05:30.179Z,3.60
2023-01-20T14:07:57.107Z,3.90
2023-01-20T14:10:23.854Z,3.40
2023-01-20T14:12:50.469Z,3.40
2023-01-20T14:15:28.303Z,3.30
2023-01-20T14:17:55.768Z,3.60
2023-01-20T14:20:23.712Z,3.50
2023-01-20T14:22:50.397Z,3.50
2023-01-20T14:25:25.168Z,3.40
2023-01-20T14:27:52.303Z,3.30
2023-01-20T14:30:22.086Z,3.40
2023-01-20T14:32:49.427Z,3.40
2023-01-20T14:35:17.879Z,3.70
2023-01-20T14:37:49.032Z,3.60
2023-01-20T14:40:24.261Z,3.40
2023-01-20T14:42:54.929Z,3.20
2023-01-20T14:45:23.496Z,3.10
2023-01-20T14:47:50.426Z,3.10
2023-01-20T14:50:18.290Z,2.70
2023-01-20T14:52:48.400Z,2.40
2023-01-20T14:55:34.240Z,2.20
2023-01-20T14:58:06.935Z,2.10
2023-01-20T15:00:34.233Z,2.00
2023-01-20T15:03:10.940Z,2.00
2023-01-20T15:05:58.726Z,1.90
2023-01-20T15:08:57.000Z,1.80
2023-01-20T15:11:32.595Z,1.70
2023-01-20T15:14:02.325Z,1.60
2023-01-20T15:16:46.613Z,1.40
2023-01-20T15:19:13.280Z,1.40
2023-01-20T15:21:41.356Z,1.30
2023-01-20T15:24:18.506Z,1.30
2023-01-20T15:26:45.998Z,1.30
2023-01-20T15:29:20.159Z,1.30
2023-01-20T15:31:46.976Z,1.20
2023-01-20T15:34:13.635Z,1.10
2023-01-20T15:36:40.321Z,1.10
2023-01-20T15:39:10.770Z,1.10
2023-01-20T15:41:37.538Z,0.90
2023-01-20T15:44:04.379Z,0.80
2023-01-20T15:46:31.207Z,0.80
2023-01-20T15:48:57.854Z,0.70
2023-01-20T15:51:24.478Z,0.70
2023-01-20T15:53:51.111Z,0.70
2023-01-20T15:56:28.982Z,0.60
2023-01-20T15:58:56.509Z,0.60
2023-01-20T16:01:25.028Z,0.50
2023-01-20T16:03:51.992Z,0.40
2023-01-20T16:08:47.063Z,0.40
2023-01-20T16:11:14.119Z,0.20
2023-01-20T16:13:40.891Z,0.10
2023-01-20T16:16:13.419Z,0.00
2023-01-20T16:18:40.560Z,0.00
2023-01-20T16:21:07.528Z,-0.10
2023-01-20T16:23:34.188Z,-0.30
2023-01-20T16:26:00.908Z,-0.20
2023-01-20T16:28:27.593Z,-0.30
2023-01-20T16:30:56.781Z,-0.40
2023-01-20T16:33:24.633Z,0.50
2023-01-20T16:35:52.325Z,-0.40
2023-01-20T16:38:20.089Z,-0.80
2023-01-20T16:40:55.209Z,-0.70
2023-01-20T16:43:21.959Z,-0.60
2023-01-20T16:45:52.607Z,-1.20
2023-01-20T16:48:19.356Z,-1.50
2023-01-20T16:50:46.060Z,-1.20
2023-01-20T16:53:13.186Z,-0.80
2023-01-20T16:55:42.666Z,-0.60
2023-01-20T16:58:09.352Z,-0.80
2023-01-20T17:00:36.920Z,-0.90
2023-01-20T17:03:03.690Z,-1.10
2023-01-20T17:05:30.527Z,-0.90
2023-01-20T17:07:57.777Z,-1.10
2023-01-20T17:10:25.824Z,-1.20
2023-01-20T17:12:52.557Z,-1.20
2023-01-20T17:15:19.230Z,-1.10
2023-01-20T17:17:49.419Z,-1.10
2023-01-20T17:20:17.671Z,-0.90
2023-01-20T17:22:44.619Z,-0.90
2023-01-20T17:25:11.265Z,-1.00
2023-01-20T17:27:37.909Z,-1.10
2023-01-20T17:30:07.594Z,-1.10
2023-01-20T17:32:34.724Z,-1.00
2023-01-20T17:35:01.488Z,-1.20
2023-01-20T17:37:28.122Z,-1.20
2023-01-20T17:39:54.729Z,-1.30
2023-01-20T17:42:21.444Z,-1.10
2023-01-20T17:44:48.123Z,-1.20
2023-01-20T17:47:14.735Z,-1.30
2023-01-20T17:49:41.422Z,-1.30
2023-01-20T17:52:08.099Z,-1.30
2023-01-20T17:54:35.298Z,-1.40
2023-01-20T17:57:01.938Z,-1.50
2023-01-20T17:59:28.810Z,-1.50
2023-01-20T18:01:56.674Z,-0.80
2023-01-20T18:04:23.328Z,-1.40
2023-01-20T18:06:49.991Z,-1.40
2023-01-20T18:09:16.823Z,-1.40
2023-01-20T18:11:43.930Z,-1.50
2023-01-20T18:14:10.659Z,-1.50
2023-01-20T18:16:38.565Z,-1.50
2023-01-20T18:19:05.306Z,-1.60
2023-01-20T18:21:33.556Z,-1.60
2023-01-20T18:24:00.752Z,-1.70
2023-01-20T18:26:31.952Z,-1.60
2023-01-20T18:29:00.281Z,-1.60
2023-01-20T18:31:28.352Z,-1.80
2023-01-20T18:33:59.212Z,-1.90
2023-01-20T18:36:30.278Z,-1.90
2023-01-20T18:38:59.210Z,-1.70
2023-01-20T18:41:26.786Z,-2.00
2023-01-20T18:43:53.445Z,-1.90
2023-01-20T18:46:20.289Z,-1.90
2023-01-20T18:48:47.386Z,-1.90
2023-01-20T18:51:17.751Z,-1.90
2023-01-20T18:56:13.174Z,-2.00
2023-01-20T19:01:10.992Z,-2.10
2023-01-20T19:03:38.499Z,-2.30
2023-01-20T19:06:05.778Z,-2.30
2023-01-20T19:08:32.690Z,-2.30
2023-01-20T19:11:03.542Z,-2.30
2023-01-20T19:13:30.184Z,-2.30
2023-01-20T19:15:57.115Z,-2.30
2023-01-20T19:18:24.021Z,-2.30
2023-01-20T19:20:50.888Z,-2.30
2023-01-20T19:23:17.694Z,-2.20
2023-01-20T19:25:44.523Z,-2.40
2023-01-20T19:28:12.184Z,-2.30
2023-01-20T19:30:38.832Z,-2.30
2023-01-20T19:33:06.049Z,-1.30
2023-01-20T19:35:33.791Z,-2.10
2023-01-20T19:38:00.520Z,-2.20
2023-01-20T19:40:27.088Z,-2.20
2023-01-20T19:42:53.942Z,-2.30
2023-01-20T19:45:20.591Z,-2.20
2023-01-20T19:47:47.260Z,-2.20
2023-01-20T19:50:14.198Z,-1.90
2023-01-20T19:52:40.993Z,-2.30
2023-01-20T19:55:07.606Z,-2.00
2023-01-20T19:57:34.187Z,-2.20
2023-01-20T20:00:00.723Z,-2.20
2023-01-20T20:02:27.604Z,-2.20
2023-01-20T20:04:54.297Z,-2.20
2023-01-20T20:07:20.922Z,-2.30
2023-01-20T20:09:47.522Z,-2.30
2023-01-20T20:12:14.176Z,-2.10
2023-01-20T20:14:40.834Z,-1.40
2023-01-20T20:17:07.499Z,-2.10
2023-01-20T20:19:34.945Z,-2.20
2023-01-20T20:22:01.689Z,-2.10
2023-01-20T20:24:28.282Z,-1.90
2023-01-20T20:26:54.927Z,-1.90
2023-01-20T20:29:21.630Z,-1.80
2023-01-20T20:31:48.340Z,-1.70
2023-01-20T20:34:16.042Z,-1.70
2023-01-20T20:36:42.719Z,-1.70
2023-01-20T20:39:12.353Z,-1.70
2023-01-20T20:41:38.951Z,-1.60
2023-01-20T20:44:05.531Z,-1.70
2023-01-20T20:46:32.346Z,-1.70
2023-01-20T20:49:00.713Z,-1.70
2023-01-20T20:51:32.155Z,-1.80
2023-01-20T20:54:00.089Z,-1.80
2023-01-20T20:56:33.041Z,-1.80
2023-01-20T20:59:02.597Z,-1.10
2023-01-20T21:01:31.232Z,-1.50
2023-01-20T21:04:00.190Z,-1.60
2023-01-20T21:06:27.077Z,-1.90
2023-01-20T21:08:53.756Z,-2.00
2023-01-20T21:11:20.667Z,-2.00
2023-01-20T21:13:49.365Z,-2.20
2023-01-20T21:16:17.760Z,-2.10
2023-01-20T21:18:44.350Z,-1.90
2023-01-20T21:21:12.720Z,-2.10
2023-01-20T21:23:40.943Z,-1.50
2023-01-20T21:26:09.629Z,-2.10
2023-01-20T21:28:36.601Z,-2.00
2023-01-20T21:31:07.602Z,-2.10
2023-01-20T21:33:34.963Z,-2.00
2023-01-20T21:36:02.375Z,-2.10
2023-01-20T21:38:28.992Z,-2.00
2023-01-20T21:41:01.912Z,-2.10
2023-01-20T21:43:50.923Z,-2.00
2023-01-20T21:46:17.985Z,-2.00
2023-01-20T21:49:03.460Z,-2.10
2023-01-20T21:51:48.526Z,-2.10
2023-01-20T21:54:15.143Z,-2.00
2023-01-20T21:56:41.711Z,-1.30
2023-01-20T21:59:08.753Z,-1.90
2023-01-20T22:01:35.507Z,-1.90
2023-01-20T22:04:02.476Z,-1.10
2023-01-20T22:06:29.053Z,-1.90
2023-01-20T22:08:58.220Z,-1.90
2023-01-20T22:11:25.704Z,-1.80
2023-01-20T22:13:57.937Z,-1.80
2023-01-20T22:16:25.660Z,-1.70
2023-01-20T22:18:52.976Z,-1.70
2023-01-20T22:21:20.491Z,-1.60
2023-01-20T22:23:47.133Z,-1.70
2023-01-20T22:26:13.934Z,-1.60
2023-01-20T22:28:40.630Z,-1.60
2023-01-20T22:31:08.461Z,-1.00
2023-01-20T22:33:35.093Z,-1.60
2023-01-20T22:36:02.815Z,-1.50
2023-01-20T22:38:29.616Z,-1.20
2023-01-20T22:41:01.984Z,-1.60
2023-01-20T22:43:28.621Z,-1.60
2023-01-20T22:46:02.100Z,-1.50
2023-01-20T22:48:30.178Z,-1.50
2023-01-20T22:51:01.719Z,-1.50
2023-01-20T22:53:28.327Z,-1.50
2023-01-20T22:56:00.936Z,-1.60
2023-01-20T22:58:27.925Z,-1.30
2023-01-20T23:00:54.562Z,-1.40
2023-01-20T23:03:21.280Z,-1.60
2023-01-20T23:05:51.903Z,-1.60
2023-01-20T23:08:18.660Z,-1.40
2023-01-20T23:10:48.359Z,-1.30
2023-01-20T23:13:15.885Z,-1.40
2023-01-20T23:15:42.701Z,-0.70
2023-01-20T23:18:09.843Z,-1.60
2023-01-20T23:20:36.807Z,-1.60
2023-01-20T23:23:03.436Z,-1.80
2023-01-20T23:25:30.017Z,-1.40
2023-01-20T23:27:56.742Z,-1.50
2023-01-20T23:30:23.483Z,-1.00
2023-01-20T23:32:50.148Z,-1.50
2023-01-20T23:35:16.813Z,-1.20
2023-01-20T23:37:43.385Z,-1.40
2023-01-20T23:40:10.399Z,-1.40
2023-01-20T23:42:36.977Z,-1.30
2023-01-20T23:45:03.871Z,-1.40
2023-01-20T23:47:30.445Z,-1.40
2023-01-20T23:49:57.103Z,-1.30
2023-01-20T23:52:25.908Z,-1.00
2023-01-20T23:54:53.036Z,-1.50
2023-01-20T23:57:20.036Z,-1.40
2023-01-20T23:59:46.659Z,-1.40
